sensor_id;sensor_type;location;lat;lon;timestamp;temperature;humidity
16736;DHT22;17990;49.548;9.730;2022-11-23T00:01:11;2.10;99.90
16736;DHT22;17990;49.548;9.730;2022-11-23T00:03:39;2.10;99.90
16736;DHT22;17990;49.548;9.730;2022-11-23T00:06:06;2.00;99.90
16736;DHT22;17990;49.548;9.730;2022-11-23T00:08:33;2.00;99.90
16736;DHT22;17990;49.548;9.730;2022-11-23T00:11:00;2.00;99.90
16736;DHT22;17990;49.548;9.730;2022-11-23T00:13:28;2.00;99.90
16736;DHT22;17990;49.548;9.730;2022-11-23T00:15:55;2.00;99.90
16736;DHT22;17990;49.548;9.730;2022-11-23T00:18:22;2.00;99.90
16736;DHT22;17990;49.548;9.730;2022-11-23T00:20:49;2.00;99.90
16736;DHT22;17990;49.548;9.730;2022-11-23T00:23:16;2.00;99.90
16736;DHT22;17990;49.548;9.730;2022-11-23T00:25:43;2.00;99.90
16736;DHT22;17990;49.548;9.730;2022-11-23T00:28:11;2.00;99.90
16736;DHT22;17990;49.548;9.730;2022-11-23T00:30:39;2.00;99.90
16736;DHT22;17990;49.548;9.730;2022-11-23T00:33:06;1.90;99.90
16736;DHT22;17990;49.548;9.730;2022-11-23T00:35:33;2.00;99.90
16736;DHT22;17990;49.548;9.730;2022-11-23T00:38:00;1.90;99.90
16736;DHT22;17990;49.548;9.730;2022-11-23T00:40:26;1.90;99.90
16736;DHT22;17990;49.548;9.730;2022-11-23T00:42:53;1.90;99.90
16736;DHT22;17990;49.548;9.730;2022-11-23T00:45:20;1.90;99.90
16736;DHT22;17990;49.548;9.730;2022-11-23T00:47:48;1.80;99.90
16736;DHT22;17990;49.548;9.730;2022-11-23T00:50:16;1.80;99.90
16736;DHT22;17990;49.548;9.730;2022-11-23T00:52:43;1.80;99.90
16736;DHT22;17990;49.548;9.730;2022-11-23T00:55:09;1.80;99.90
16736;DHT22;17990;49.548;9.730;2022-11-23T00:57:36;1.80;99.90
16736;DHT22;17990;49.548;9.730;2022-11-23T01:00:05;1.70;99.90
16736;DHT22;17990;49.548;9.730;2022-11-23T01:02:33;1.70;99.90
16736;DHT22;17990;49.548;9.730;2022-11-23T01:05:02;1.70;99.90
16736;DHT22;17990;49.548;9.730;2022-11-23T01:07:29;1.60;99.90
16736;DHT22;17990;49.548;9.730;2022-11-23T01:09:56;1.60;99.90
16736;DHT22;17990;49.548;9.730;2022-11-23T01:12:23;1.50;99.90
16736;DHT22;17990;49.548;9.730;2022-11-23T01:14:52;1.50;99.90
16736;DHT22;17990;49.548;9.730;2022-11-23T01:17:19;1.40;99.90
16736;DHT22;17990;49.548;9.730;2022-11-23T01:19:46;1.40;99.90
16736;DHT22;17990;49.548;9.730;2022-11-23T01:22:14;1.40;99.90
16736;DHT22;17990;49.548;9.730;2022-11-23T01:24:41;1.50;99.90
16736;DHT22;17990;49.548;9.730;2022-11-23T01:27:09;1.50;99.90
16736;DHT22;17990;49.548;9.730;2022-11-23T01:29:35;1.40;99.90
16736;DHT22;17990;49.548;9.730;2022-11-23T01:32:02;1.40;99.90
16736;DHT22;17990;49.548;9.730;2022-11-23T01:34:29;1.40;99.90
16736;DHT22;17990;49.548;9.730;2022-11-23T01:36:56;1.30;99.90
16736;DHT22;17990;49.548;9.730;2022-11-23T01:39:25;1.30;99.90
16736;DHT22;17990;49.548;9.730;2022-11-23T01:41:52;1.30;99.90
16736;DHT22;17990;49.548;9.730;2022-11-23T01:44:24;1.20;99.90
16736;DHT22;17990;49.548;9.730;2022-11-23T01:46:53;1.20;99.90
16736;DHT22;17990;49.548;9.730;2022-11-23T01:49:21;1.20;99.90
16736;DHT22;17990;49.548;9.730;2022-11-23T01:51:51;1.20;99.90
16736;DHT22;17990;49.548;9.730;2022-11-23T01:54:22;1.20;99.90
16736;DHT22;17990;49.548;9.730;2022-11-23T01:56:56;1.20;99.90
16736;DHT22;17990;49.548;9.730;2022-11-23T01:59:26;1.20;99.90
16736;DHT22;17990;49.548;9.730;2022-11-23T02:01:54;1.30;99.90
16736;DHT22;17990;49.548;9.730;2022-11-23T02:04:23;1.30;99.90
16736;DHT22;17990;49.548;9.730;2022-11-23T02:06:52;1.40;99.90
16736;DHT22;17990;49.548;9.730;2022-11-23T02:09:21;1.40;99.90
16736;DHT22;17990;49.548;9.730;2022-11-23T02:11:50;1.50;99.90
16736;DHT22;17990;49.548;9.730;2022-11-23T02:14:17;1.50;99.90
16736;DHT22;17990;49.548;9.730;2022-11-23T02:16:44;1.60;99.90
16736;DHT22;17990;49.548;9.730;2022-11-23T02:19:17;1.70;99.90
16736;DHT22;17990;49.548;9.730;2022-11-23T02:21:50;1.80;99.90
16736;DHT22;17990;49.548;9.730;2022-11-23T02:24:24;1.90;99.90
16736;DHT22;17990;49.548;9.730;2022-11-23T02:26:55;1.90;99.90
16736;DHT22;17990;49.548;9.730;2022-11-23T02:29:24;1.90;99.90
16736;DHT22;17990;49.548;9.730;2022-11-23T02:31:52;1.90;99.90
16736;DHT22;17990;49.548;9.730;2022-11-23T02:34:19;1.90;99.90
16736;DHT22;17990;49.548;9.730;2022-11-23T02:36:47;2.00;99.90
16736;DHT22;17990;49.548;9.730;2022-11-23T02:39:20;2.00;99.90
16736;DHT22;17990;49.548;9.730;2022-11-23T02:41:50;2.00;99.90
16736;DHT22;17990;49.548;9.730;2022-11-23T02:44:28;2.00;99.90
16736;DHT22;17990;49.548;9.730;2022-11-23T02:47:00;2.00;99.90
16736;DHT22;17990;49.548;9.730;2022-11-23T02:49:27;2.00;99.90
16736;DHT22;17990;49.548;9.730;2022-11-23T02:51:54;2.10;99.90
16736;DHT22;17990;49.548;9.730;2022-11-23T02:54:21;2.10;99.90
16736;DHT22;17990;49.548;9.730;2022-11-23T02:56:48;2.20;99.90
16736;DHT22;17990;49.548;9.730;2022-11-23T02:59:15;2.20;99.90
16736;DHT22;17990;49.548;9.730;2022-11-23T03:01:43;2.30;99.90
16736;DHT22;17990;49.548;9.730;2022-11-23T03:04:10;2.30;99.90
16736;DHT22;17990;49.548;9.730;2022-11-23T03:06:37;2.30;99.90
16736;DHT22;17990;49.548;9.730;2022-11-23T03:09:04;2.20;99.90
16736;DHT22;17990;49.548;9.730;2022-11-23T03:11:31;2.20;99.90
16736;DHT22;17990;49.548;9.730;2022-11-23T03:13:58;2.20;99.90
16736;DHT22;17990;49.548;9.730;2022-11-23T03:16:26;2.10;99.90
16736;DHT22;17990;49.548;9.730;2022-11-23T03:18:54;2.10;99.90
16736;DHT22;17990;49.548;9.730;2022-11-23T03:21:21;2.10;99.90
16736;DHT22;17990;49.548;9.730;2022-11-23T03:23:48;2.00;99.90
16736;DHT22;17990;49.548;9.730;2022-11-23T03:26:15;2.00;99.90
16736;DHT22;17990;49.548;9.730;2022-11-23T03:28:42;1.90;99.90
16736;DHT22;17990;49.548;9.730;2022-11-23T03:31:09;1.90;99.90
16736;DHT22;17990;49.548;9.730;2022-11-23T03:33:37;1.80;99.90
16736;DHT22;17990;49.548;9.730;2022-11-23T03:36:06;1.80;99.90
16736;DHT22;17990;49.548;9.730;2022-11-23T03:38:33;1.70;99.90
16736;DHT22;17990;49.548;9.730;2022-11-23T03:41:00;1.70;99.90
16736;DHT22;17990;49.548;9.730;2022-11-23T03:43:27;1.70;99.90
16736;DHT22;17990;49.548;9.730;2022-11-23T03:45:54;1.70;99.90
16736;DHT22;17990;49.548;9.730;2022-11-23T03:48:21;1.70;99.90
16736;DHT22;17990;49.548;9.730;2022-11-23T03:50:48;1.70;99.90
16736;DHT22;17990;49.548;9.730;2022-11-23T03:53:16;1.70;99.90
16736;DHT22;17990;49.548;9.730;2022-11-23T03:55:44;1.80;99.90
16736;DHT22;17990;49.548;9.730;2022-11-23T03:58:12;1.70;99.90
16736;DHT22;17990;49.548;9.730;2022-11-23T04:00:39;1.70;99.90
16736;DHT22;17990;49.548;9.730;2022-11-23T04:03:06;1.70;99.90
16736;DHT22;17990;49.548;9.730;2022-11-23T04:05:33;1.80;99.90
16736;DHT22;17990;49.548;9.730;2022-11-23T04:08:00;1.80;99.90
16736;DHT22;17990;49.548;9.730;2022-11-23T04:10:28;1.90;99.90
16736;DHT22;17990;49.548;9.730;2022-11-23T04:12:55;1.90;99.90
16736;DHT22;17990;49.548;9.730;2022-11-23T04:15:22;1.90;99.90
16736;DHT22;17990;49.548;9.730;2022-11-23T04:17:49;2.00;99.90
16736;DHT22;17990;49.548;9.730;2022-11-23T04:20:16;2.00;99.90
16736;DHT22;17990;49.548;9.730;2022-11-23T04:22:43;2.00;99.90
16736;DHT22;17990;49.548;9.730;2022-11-23T04:25:10;1.90;99.90
16736;DHT22;17990;49.548;9.730;2022-11-23T04:27:38;1.90;99.90
16736;DHT22;17990;49.548;9.730;2022-11-23T04:30:06;1.90;99.90
16736;DHT22;17990;49.548;9.730;2022-11-23T04:32:34;1.90;99.90
16736;DHT22;17990;49.548;9.730;2022-11-23T04:35:01;1.90;99.90
16736;DHT22;17990;49.548;9.730;2022-11-23T04:37:28;2.00;99.90
16736;DHT22;17990;49.548;9.730;2022-11-23T04:39:55;2.10;99.90
16736;DHT22;17990;49.548;9.730;2022-11-23T04:42:22;2.10;99.90
16736;DHT22;17990;49.548;9.730;2022-11-23T04:44:50;2.20;99.90
16736;DHT22;17990;49.548;9.730;2022-11-23T04:47:17;2.30;99.90
16736;DHT22;17990;49.548;9.730;2022-11-23T04:49:44;2.30;99.90
16736;DHT22;17990;49.548;9.730;2022-11-23T04:52:11;2.40;99.90
16736;DHT22;17990;49.548;9.730;2022-11-23T04:54:38;2.40;99.90
16736;DHT22;17990;49.548;9.730;2022-11-23T04:57:05;2.50;99.90
16736;DHT22;17990;49.548;9.730;2022-11-23T04:59:32;2.50;99.90
16736;DHT22;17990;49.548;9.730;2022-11-23T05:02:00;2.40;99.90
16736;DHT22;17990;49.548;9.730;2022-11-23T05:04:27;2.40;99.90
16736;DHT22;17990;49.548;9.730;2022-11-23T05:06:54;2.40;99.90
16736;DHT22;17990;49.548;9.730;2022-11-23T05:09:21;2.40;99.90
16736;DHT22;17990;49.548;9.730;2022-11-23T05:11:48;2.50;99.90
16736;DHT22;17990;49.548;9.730;2022-11-23T05:14:15;2.60;99.90
16736;DHT22;17990;49.548;9.730;2022-11-23T05:16:42;2.70;99.90
16736;DHT22;17990;49.548;9.730;2022-11-23T05:19:10;2.80;99.90
16736;DHT22;17990;49.548;9.730;2022-11-23T05:21:37;2.80;99.90
16736;DHT22;17990;49.548;9.730;2022-11-23T05:24:04;2.90;99.90
16736;DHT22;17990;49.548;9.730;2022-11-23T05:26:31;3.10;99.90
16736;DHT22;17990;49.548;9.730;2022-11-23T05:28:58;3.20;99.90
16736;DHT22;17990;49.548;9.730;2022-11-23T05:31:25;3.30;99.90
16736;DHT22;17990;49.548;9.730;2022-11-23T05:33:52;3.40;99.90
16736;DHT22;17990;49.548;9.730;2022-11-23T05:36:20;3.50;99.90
16736;DHT22;17990;49.548;9.730;2022-11-23T05:38:47;3.50;99.90
16736;DHT22;17990;49.548;9.730;2022-11-23T05:41:14;3.60;99.90
16736;DHT22;17990;49.548;9.730;2022-11-23T05:43:41;3.60;99.90
16736;DHT22;17990;49.548;9.730;2022-11-23T05:46:08;3.60;99.90
16736;DHT22;17990;49.548;9.730;2022-11-23T05:48:35;3.70;99.90
16736;DHT22;17990;49.548;9.730;2022-11-23T05:51:02;3.70;99.90
16736;DHT22;17990;49.548;9.730;2022-11-23T05:53:32;3.80;99.90
16736;DHT22;17990;49.548;9.730;2022-11-23T05:55:59;3.80;99.90
16736;DHT22;17990;49.548;9.730;2022-11-23T05:58:26;3.80;99.90
16736;DHT22;17990;49.548;9.730;2022-11-23T06:00:56;3.90;99.90
16736;DHT22;17990;49.548;9.730;2022-11-23T06:03:24;3.90;99.90
16736;DHT22;17990;49.548;9.730;2022-11-23T06:05:51;3.90;99.90
16736;DHT22;17990;49.548;9.730;2022-11-23T06:08:17;3.90;99.90
16736;DHT22;17990;49.548;9.730;2022-11-23T06:10:46;3.90;99.90
16736;DHT22;17990;49.548;9.730;2022-11-23T06:13:13;4.00;99.90
16736;DHT22;17990;49.548;9.730;2022-11-23T06:15:40;4.00;99.90
16736;DHT22;17990;49.548;9.730;2022-11-23T06:18:08;4.00;99.90
16736;DHT22;17990;49.548;9.730;2022-11-23T06:20:35;4.00;99.90
16736;DHT22;17990;49.548;9.730;2022-11-23T06:23:02;4.00;99.90
16736;DHT22;17990;49.548;9.730;2022-11-23T06:25:29;4.00;99.90
16736;DHT22;17990;49.548;9.730;2022-11-23T06:27:59;4.00;99.90
16736;DHT22;17990;49.548;9.730;2022-11-23T06:30:27;4.10;99.90
16736;DHT22;17990;49.548;9.730;2022-11-23T06:32:55;4.10;99.90
16736;DHT22;17990;49.548;9.730;2022-11-23T06:35:23;4.10;99.90
16736;DHT22;17990;49.548;9.730;2022-11-23T06:37:50;4.10;99.90
16736;DHT22;17990;49.548;9.730;2022-11-23T06:40:19;4.00;99.90
16736;DHT22;17990;49.548;9.730;2022-11-23T06:42:46;4.00;99.90
16736;DHT22;17990;49.548;9.730;2022-11-23T06:45:15;4.10;99.90
16736;DHT22;17990;49.548;9.730;2022-11-23T06:47:42;4.10;99.90
16736;DHT22;17990;49.548;9.730;2022-11-23T06:50:09;4.20;99.90
16736;DHT22;17990;49.548;9.730;2022-11-23T06:52:36;4.30;99.90
16736;DHT22;17990;49.548;9.730;2022-11-23T06:55:04;4.30;99.90
16736;DHT22;17990;49.548;9.730;2022-11-23T06:57:31;4.30;99.90
16736;DHT22;17990;49.548;9.730;2022-11-23T06:59:58;4.30;99.90
16736;DHT22;17990;49.548;9.730;2022-11-23T07:02:26;4.30;99.90
16736;DHT22;17990;49.548;9.730;2022-11-23T07:04:53;4.30;99.90
16736;DHT22;17990;49.548;9.730;2022-11-23T07:07:19;4.20;99.90
16736;DHT22;17990;49.548;9.730;2022-11-23T07:09:46;4.20;99.90
16736;DHT22;17990;49.548;9.730;2022-11-23T07:12:13;4.10;99.90
16736;DHT22;17990;49.548;9.730;2022-11-23T07:14:40;4.20;99.90
16736;DHT22;17990;49.548;9.730;2022-11-23T07:17:07;4.20;99.90
16736;DHT22;17990;49.548;9.730;2022-11-23T07:19:36;4.30;99.90
16736;DHT22;17990;49.548;9.730;2022-11-23T07:22:02;4.30;99.90
16736;DHT22;17990;49.548;9.730;2022-11-23T07:24:29;4.40;99.90
16736;DHT22;17990;49.548;9.730;2022-11-23T07:26:56;4.40;99.90
16736;DHT22;17990;49.548;9.730;2022-11-23T07:29:23;4.50;99.90
16736;DHT22;17990;49.548;9.730;2022-11-23T07:31:50;4.50;99.90
16736;DHT22;17990;49.548;9.730;2022-11-23T07:34:17;4.50;99.90
16736;DHT22;17990;49.548;9.730;2022-11-23T07:36:45;4.60;99.90
16736;DHT22;17990;49.548;9.730;2022-11-23T07:39:12;4.60;99.90
16736;DHT22;17990;49.548;9.730;2022-11-23T07:41:39;4.60;99.90
16736;DHT22;17990;49.548;9.730;2022-11-23T07:44:06;4.70;99.90
16736;DHT22;17990;49.548;9.730;2022-11-23T07:46:33;4.70;99.90
16736;DHT22;17990;49.548;9.730;2022-11-23T07:49:01;4.70;99.90
16736;DHT22;17990;49.548;9.730;2022-11-23T07:51:29;4.70;99.90
16736;DHT22;17990;49.548;9.730;2022-11-23T07:53:57;4.80;99.90
16736;DHT22;17990;49.548;9.730;2022-11-23T07:56:24;4.80;99.90
16736;DHT22;17990;49.548;9.730;2022-11-23T07:58:51;4.90;99.90
16736;DHT22;17990;49.548;9.730;2022-11-23T08:01:19;5.00;99.90
16736;DHT22;17990;49.548;9.730;2022-11-23T08:03:46;5.10;99.90
16736;DHT22;17990;49.548;9.730;2022-11-23T08:06:15;5.20;99.90
16736;DHT22;17990;49.548;9.730;2022-11-23T08:08:43;5.30;99.90
16736;DHT22;17990;49.548;9.730;2022-11-23T08:11:11;5.40;99.90
16736;DHT22;17990;49.548;9.730;2022-11-23T08:13:41;5.50;99.90
16736;DHT22;17990;49.548;9.730;2022-11-23T08:16:08;5.50;99.90
16736;DHT22;17990;49.548;9.730;2022-11-23T08:18:35;5.60;99.90
16736;DHT22;17990;49.548;9.730;2022-11-23T08:21:03;5.70;99.90
16736;DHT22;17990;49.548;9.730;2022-11-23T08:23:30;5.70;99.90
16736;DHT22;17990;49.548;9.730;2022-11-23T08:25:57;5.80;99.90
16736;DHT22;17990;49.548;9.730;2022-11-23T08:28:26;5.80;99.90
16736;DHT22;17990;49.548;9.730;2022-11-23T08:30:53;5.90;99.90
16736;DHT22;17990;49.548;9.730;2022-11-23T08:33:20;6.00;99.90
16736;DHT22;17990;49.548;9.730;2022-11-23T08:35:47;6.00;99.90
16736;DHT22;17990;49.548;9.730;2022-11-23T08:38:14;6.00;99.90
16736;DHT22;17990;49.548;9.730;2022-11-23T08:40:41;6.00;99.90
16736;DHT22;17990;49.548;9.730;2022-11-23T08:43:08;6.10;99.90
16736;DHT22;17990;49.548;9.730;2022-11-23T08:45:36;6.20;99.90
16736;DHT22;17990;49.548;9.730;2022-11-23T08:48:04;6.20;99.90
16736;DHT22;17990;49.548;9.730;2022-11-23T08:50:31;6.30;99.90
16736;DHT22;17990;49.548;9.730;2022-11-23T08:53:00;6.50;99.90
16736;DHT22;17990;49.548;9.730;2022-11-23T08:55:27;6.60;99.90
16736;DHT22;17990;49.548;9.730;2022-11-23T08:57:55;6.70;99.90
16736;DHT22;17990;49.548;9.730;2022-11-23T09:00:22;6.70;99.90
16736;DHT22;17990;49.548;9.730;2022-11-23T09:02:50;6.80;99.90
16736;DHT22;17990;49.548;9.730;2022-11-23T09:05:17;6.80;99.90
16736;DHT22;17990;49.548;9.730;2022-11-23T09:07:44;6.90;99.90
16736;DHT22;17990;49.548;9.730;2022-11-23T09:10:11;6.90;99.90
16736;DHT22;17990;49.548;9.730;2022-11-23T09:12:38;7.00;99.90
16736;DHT22;17990;49.548;9.730;2022-11-23T09:15:06;7.00;99.90
16736;DHT22;17990;49.548;9.730;2022-11-23T09:17:34;7.10;99.90
16736;DHT22;17990;49.548;9.730;2022-11-23T09:20:03;7.10;99.90
16736;DHT22;17990;49.548;9.730;2022-11-23T09:22:31;7.20;99.90
16736;DHT22;17990;49.548;9.730;2022-11-23T09:24:58;7.40;99.90
16736;DHT22;17990;49.548;9.730;2022-11-23T09:27:25;7.50;99.90
16736;DHT22;17990;49.548;9.730;2022-11-23T09:29:52;7.70;99.90
16736;DHT22;17990;49.548;9.730;2022-11-23T09:32:19;7.90;99.90
16736;DHT22;17990;49.548;9.730;2022-11-23T09:34:46;8.00;99.90
16736;DHT22;17990;49.548;9.730;2022-11-23T09:37:14;8.00;99.90
16736;DHT22;17990;49.548;9.730;2022-11-23T09:39:41;8.20;99.90
16736;DHT22;17990;49.548;9.730;2022-11-23T09:42:19;8.40;99.90
16736;DHT22;17990;49.548;9.730;2022-11-23T09:45:10;8.50;99.90
16736;DHT22;17990;49.548;9.730;2022-11-23T09:47:53;8.60;99.90
16736;DHT22;17990;49.548;9.730;2022-11-23T09:50:28;8.80;99.90
16736;DHT22;17990;49.548;9.730;2022-11-23T09:53:04;8.90;99.90
16736;DHT22;17990;49.548;9.730;2022-11-23T09:55:39;9.00;99.90
16736;DHT22;17990;49.548;9.730;2022-11-23T09:58:14;9.10;99.90
16736;DHT22;17990;49.548;9.730;2022-11-23T10:00:46;9.30;99.90
16736;DHT22;17990;49.548;9.730;2022-11-23T10:03:16;9.40;99.90
16736;DHT22;17990;49.548;9.730;2022-11-23T10:05:49;9.60;99.90
16736;DHT22;17990;49.548;9.730;2022-11-23T10:08:34;9.90;99.90
16736;DHT22;17990;49.548;9.730;2022-11-23T10:11:19;10.10;99.90
16736;DHT22;17990;49.548;9.730;2022-11-23T10:14:00;10.40;99.90
16736;DHT22;17990;49.548;9.730;2022-11-23T10:16:36;10.40;99.90
16736;DHT22;17990;49.548;9.730;2022-11-23T10:19:13;10.30;99.90
16736;DHT22;17990;49.548;9.730;2022-11-23T10:21:53;10.10;99.90
16736;DHT22;17990;49.548;9.730;2022-11-23T10:24:32;10.00;99.90
16736;DHT22;17990;49.548;9.730;2022-11-23T10:27:01;9.90;99.90
16736;DHT22;17990;49.548;9.730;2022-11-23T10:29:31;10.00;99.90
16736;DHT22;17990;49.548;9.730;2022-11-23T10:31:59;9.90;99.90
16736;DHT22;17990;49.548;9.730;2022-11-23T10:34:45;9.90;99.90
16736;DHT22;17990;49.548;9.730;2022-11-23T10:37:15;10.00;99.90
16736;DHT22;17990;49.548;9.730;2022-11-23T10:39:44;10.10;99.90
16736;DHT22;17990;49.548;9.730;2022-11-23T10:42:19;10.20;99.90
16736;DHT22;17990;49.548;9.730;2022-11-23T10:44:49;10.30;99.90
16736;DHT22;17990;49.548;9.730;2022-11-23T10:47:33;10.40;99.90
16736;DHT22;17990;49.548;9.730;2022-11-23T10:50:21;10.40;99.90
16736;DHT22;17990;49.548;9.730;2022-11-23T10:52:54;10.50;99.90
16736;DHT22;17990;49.548;9.730;2022-11-23T10:55:29;10.50;99.90
16736;DHT22;17990;49.548;9.730;2022-11-23T10:57:57;10.70;99.90
16736;DHT22;17990;49.548;9.730;2022-11-23T11:00:26;10.60;99.90
16736;DHT22;17990;49.548;9.730;2022-11-23T11:02:55;10.60;99.90
16736;DHT22;17990;49.548;9.730;2022-11-23T11:05:27;10.60;99.90
16736;DHT22;17990;49.548;9.730;2022-11-23T11:08:00;10.60;99.90
16736;DHT22;17990;49.548;9.730;2022-11-23T11:10:36;10.60;99.90
16736;DHT22;17990;49.548;9.730;2022-11-23T11:13:23;10.70;99.90
16736;DHT22;17990;49.548;9.730;2022-11-23T11:15:53;10.80;99.90
16736;DHT22;17990;49.548;9.730;2022-11-23T11:18:24;10.90;99.90
16736;DHT22;17990;49.548;9.730;2022-11-23T11:20:59;10.80;99.90
16736;DHT22;17990;49.548;9.730;2022-11-23T11:23:29;10.70;99.90
16736;DHT22;17990;49.548;9.730;2022-11-23T11:26:07;10.70;99.90
16736;DHT22;17990;49.548;9.730;2022-11-23T11:28:38;10.70;99.90
16736;DHT22;17990;49.548;9.730;2022-11-23T11:34:23;10.60;99.90
16736;DHT22;17990;49.548;9.730;2022-11-23T11:36:57;10.60;99.90
16736;DHT22;17990;49.548;9.730;2022-11-23T11:39:31;10.50;99.90
16736;DHT22;17990;49.548;9.730;2022-11-23T11:42:06;10.40;99.90
16736;DHT22;17990;49.548;9.730;2022-11-23T11:44:39;10.50;99.90
16736;DHT22;17990;49.548;9.730;2022-11-23T11:47:27;10.60;99.90
16736;DHT22;17990;49.548;9.730;2022-11-23T11:49:58;10.70;99.90
16736;DHT22;17990;49.548;9.730;2022-11-23T11:52:30;10.70;99.90
16736;DHT22;17990;49.548;9.730;2022-11-23T11:55:04;10.70;99.90
16736;DHT22;17990;49.548;9.730;2022-11-23T11:57:41;10.80;99.90
16736;DHT22;17990;49.548;9.730;2022-11-23T12:00:14;10.90;99.90
16736;DHT22;17990;49.548;9.730;2022-11-23T12:02:50;10.90;99.90
16736;DHT22;17990;49.548;9.730;2022-11-23T12:05:24;10.90;99.90
16736;DHT22;17990;49.548;9.730;2022-11-23T12:07:59;11.00;99.90
16736;DHT22;17990;49.548;9.730;2022-11-23T12:10:32;11.00;99.90
16736;DHT22;17990;49.548;9.730;2022-11-23T12:13:08;11.00;99.90
16736;DHT22;17990;49.548;9.730;2022-11-23T12:15:43;11.00;99.90
16736;DHT22;17990;49.548;9.730;2022-11-23T12:18:29;11.10;99.90
16736;DHT22;17990;49.548;9.730;2022-11-23T12:21:29;11.20;99.90
16736;DHT22;17990;49.548;9.730;2022-11-23T12:24:09;11.30;99.90
16736;DHT22;17990;49.548;9.730;2022-11-23T12:26:47;11.30;99.90
16736;DHT22;17990;49.548;9.730;2022-11-23T12:29:33;11.30;99.90
16736;DHT22;17990;49.548;9.730;2022-11-23T12:32:21;11.40;99.90
16736;DHT22;17990;49.548;9.730;2022-11-23T12:38:08;11.20;99.90
16736;DHT22;17990;49.548;9.730;2022-11-23T12:43:50;11.20;99.90
16736;DHT22;17990;49.548;9.730;2022-11-23T12:46:28;11.30;99.90
16736;DHT22;17990;49.548;9.730;2022-11-23T12:49:11;11.30;99.90
16736;DHT22;17990;49.548;9.730;2022-11-23T12:51:51;11.20;99.90
16736;DHT22;17990;49.548;9.730;2022-11-23T12:54:38;11.20;99.90
16736;DHT22;17990;49.548;9.730;2022-11-23T12:57:14;11.40;99.90
16736;DHT22;17990;49.548;9.730;2022-11-23T12:59:49;11.30;99.90
16736;DHT22;17990;49.548;9.730;2022-11-23T13:05:59;11.40;99.90
16736;DHT22;17990;49.548;9.730;2022-11-23T13:08:51;11.40;99.90
16736;DHT22;17990;49.548;9.730;2022-11-23T13:11:36;11.30;99.90
16736;DHT22;17990;49.548;9.730;2022-11-23T13:14:16;11.30;99.90
16736;DHT22;17990;49.548;9.730;2022-11-23T13:16:56;11.30;99.90
16736;DHT22;17990;49.548;9.730;2022-11-23T13:19:59;11.20;99.90
16736;DHT22;17990;49.548;9.730;2022-11-23T13:22:33;11.30;99.90
16736;DHT22;17990;49.548;9.730;2022-11-23T13:25:14;11.10;99.90
16736;DHT22;17990;49.548;9.730;2022-11-23T13:27:58;11.00;99.90
16736;DHT22;17990;49.548;9.730;2022-11-23T13:30:32;11.00;99.90
16736;DHT22;17990;49.548;9.730;2022-11-23T13:35:58;10.90;99.90
16736;DHT22;17990;49.548;9.730;2022-11-23T13:38:39;10.90;99.90
16736;DHT22;17990;49.548;9.730;2022-11-23T13:44:25;10.80;99.90
16736;DHT22;17990;49.548;9.730;2022-11-23T13:47:00;10.80;99.90
16736;DHT22;17990;49.548;9.730;2022-11-23T13:49:30;10.90;99.90
16736;DHT22;17990;49.548;9.730;2022-11-23T13:52:28;10.90;99.90
16736;DHT22;17990;49.548;9.730;2022-11-23T13:55:00;10.80;99.90
16736;DHT22;17990;49.548;9.730;2022-11-23T13:57:30;10.80;99.90
16736;DHT22;17990;49.548;9.730;2022-11-23T14:03:53;10.80;99.90
16736;DHT22;17990;49.548;9.730;2022-11-23T14:06:39;10.80;99.90
16736;DHT22;17990;49.548;9.730;2022-11-23T14:09:16;10.70;99.90
16736;DHT22;17990;49.548;9.730;2022-11-23T14:12:05;10.60;99.90
16736;DHT22;17990;49.548;9.730;2022-11-23T14:14:47;10.60;99.90
16736;DHT22;17990;49.548;9.730;2022-11-23T14:20:58;10.60;99.90
16736;DHT22;17990;49.548;9.730;2022-11-23T14:26:38;10.40;99.90
16736;DHT22;17990;49.548;9.730;2022-11-23T14:29:25;10.40;99.90
16736;DHT22;17990;49.548;9.730;2022-11-23T14:32:24;10.30;99.90
16736;DHT22;17990;49.548;9.730;2022-11-23T14:35:11;10.20;99.90
16736;DHT22;17990;49.548;9.730;2022-11-23T14:37:59;10.10;99.90
16736;DHT22;17990;49.548;9.730;2022-11-23T14:40:45;10.00;99.90
16736;DHT22;17990;49.548;9.730;2022-11-23T14:43:18;9.90;99.90
16736;DHT22;17990;49.548;9.730;2022-11-23T14:45:47;9.70;99.90
16736;DHT22;17990;49.548;9.730;2022-11-23T14:48:22;9.60;99.90
16736;DHT22;17990;49.548;9.730;2022-11-23T14:50:55;9.40;99.90
16736;DHT22;17990;49.548;9.730;2022-11-23T14:53:27;9.30;99.90
16736;DHT22;17990;49.548;9.730;2022-11-23T14:55:56;9.20;99.90
16736;DHT22;17990;49.548;9.730;2022-11-23T14:58:25;9.10;99.90
16736;DHT22;17990;49.548;9.730;2022-11-23T15:00:58;9.00;99.90
16736;DHT22;17990;49.548;9.730;2022-11-23T15:03:28;8.90;99.90
16736;DHT22;17990;49.548;9.730;2022-11-23T15:06:05;8.90;99.90
16736;DHT22;17990;49.548;9.730;2022-11-23T15:08:43;8.80;99.90
16736;DHT22;17990;49.548;9.730;2022-11-23T15:11:15;8.60;99.90
16736;DHT22;17990;49.548;9.730;2022-11-23T15:13:48;8.50;99.90
16736;DHT22;17990;49.548;9.730;2022-11-23T15:16:18;8.40;99.90
16736;DHT22;17990;49.548;9.730;2022-11-23T15:18:46;8.30;99.90
16736;DHT22;17990;49.548;9.730;2022-11-23T15:21:18;8.20;99.90
16736;DHT22;17990;49.548;9.730;2022-11-23T15:23:48;8.20;99.90
16736;DHT22;17990;49.548;9.730;2022-11-23T15:26:18;8.10;99.90
16736;DHT22;17990;49.548;9.730;2022-11-23T15:28:48;8.10;99.90
16736;DHT22;17990;49.548;9.730;2022-11-23T15:31:17;7.90;99.90
16736;DHT22;17990;49.548;9.730;2022-11-23T15:33:48;7.80;99.90
16736;DHT22;17990;49.548;9.730;2022-11-23T15:36:22;7.70;99.90
16736;DHT22;17990;49.548;9.730;2022-11-23T15:38:51;7.50;99.90
16736;DHT22;17990;49.548;9.730;2022-11-23T15:41:19;7.40;99.90
16736;DHT22;17990;49.548;9.730;2022-11-23T15:43:54;7.40;99.90
16736;DHT22;17990;49.548;9.730;2022-11-23T15:46:23;7.30;99.90
16736;DHT22;17990;49.548;9.730;2022-11-23T15:48:52;7.20;99.90
16736;DHT22;17990;49.548;9.730;2022-11-23T15:51:28;7.10;99.90
16736;DHT22;17990;49.548;9.730;2022-11-23T15:53:58;7.00;99.90
16736;DHT22;17990;49.548;9.730;2022-11-23T15:56:28;6.90;99.90
16736;DHT22;17990;49.548;9.730;2022-11-23T15:59:00;6.80;99.90
16736;DHT22;17990;49.548;9.730;2022-11-23T16:01:28;6.60;99.90
16736;DHT22;17990;49.548;9.730;2022-11-23T16:03:57;6.50;99.90
16736;DHT22;17990;49.548;9.730;2022-11-23T16:06:35;6.50;99.90
16736;DHT22;17990;49.548;9.730;2022-11-23T16:09:33;6.40;99.90
16736;DHT22;17990;49.548;9.730;2022-11-23T16:12:03;6.30;99.90
16736;DHT22;17990;49.548;9.730;2022-11-23T16:14:31;6.20;99.90
16736;DHT22;17990;49.548;9.730;2022-11-23T16:17:01;6.00;99.90
16736;DHT22;17990;49.548;9.730;2022-11-23T16:19:32;5.90;99.90
16736;DHT22;17990;49.548;9.730;2022-11-23T16:22:02;5.90;99.90
16736;DHT22;17990;49.548;9.730;2022-11-23T16:24:32;5.80;99.90
16736;DHT22;17990;49.548;9.730;2022-11-23T16:27:00;5.70;99.90
16736;DHT22;17990;49.548;9.730;2022-11-23T16:29:39;5.60;99.90
16736;DHT22;17990;49.548;9.730;2022-11-23T16:32:21;5.50;99.90
16736;DHT22;17990;49.548;9.730;2022-11-23T16:34:50;5.40;99.90